Terminal Aerodrome Forecast
Issued by NWS

Home | Current Version | Previous Version | Graphics & Text | Print | Product List | Glossary On
Versions: 1 2 3 4 5 6 7 8 9 10 11 12 13 14 15 16 17 18 19
385
FTUS43 KICT 111131
TAFHUT
TAF
KHUT 111131Z 1112/1212 02009KT P6SM SKC
     FM111400 05005KT P6SM SCT009 BKN015
     FM111800 09004KT P6SM SCT015
     FM112000 16005KT P6SM SCT250
     FM120700 22006KT P6SM SCT250=

USA.gov is the U.S. government's official web portal to all federal, state and local government web resources and services.